地図

経路データ

SID SEASON NUMBER BASIN SUBBASIN NAME ISO_TIME NATURE LAT LON WMO_WIND WMO_PRES WMO_AGENCY TRACK_TYPE DIST2LAND LANDFALL IFLAG USA_AGENCY USA_ATCF_ID USA_LAT USA_LON USA_RECORD USA_STATUS USA_WIND USA_PRES USA_SSHS USA_R34_NE USA_R34_SE USA_R34_SW USA_R34_NW USA_R50_NE USA_R50_SE USA_R50_SW USA_R50_NW USA_R64_NE USA_R64_SE USA_R64_SW USA_R64_NW USA_POCI USA_ROCI USA_RMW USA_EYE TOKYO_LAT TOKYO_LON TOKYO_GRADE TOKYO_WIND TOKYO_PRES TOKYO_R50_DIR TOKYO_R50_LONG TOKYO_R50_SHORT TOKYO_R30_DIR TOKYO_R30_LONG TOKYO_R30_SHORT TOKYO_LAND CMA_LAT CMA_LON CMA_CAT CMA_WIND CMA_PRES HKO_LAT HKO_LON HKO_CAT HKO_WIND HKO_PRES NEWDELHI_LAT NEWDELHI_LON NEWDELHI_GRADE NEWDELHI_WIND NEWDELHI_PRES NEWDELHI_CI NEWDELHI_DP NEWDELHI_POCI REUNION_LAT REUNION_LON REUNION_TYPE REUNION_WIND REUNION_PRES REUNION_TNUM REUNION_CI REUNION_RMW REUNION_R34_NE REUNION_R34_SE REUNION_R34_SW REUNION_R34_NW REUNION_R50_NE REUNION_R50_SE REUNION_R50_SW REUNION_R50_NW REUNION_R64_NE REUNION_R64_SE REUNION_R64_SW REUNION_R64_NW BOM_LAT BOM_LON BOM_TYPE BOM_WIND BOM_PRES BOM_TNUM BOM_CI BOM_RMW BOM_R34_NE BOM_R34_SE BOM_R34_SW BOM_R34_NW BOM_R50_NE BOM_R50_SE BOM_R50_SW BOM_R50_NW BOM_R64_NE BOM_R64_SE BOM_R64_SW BOM_R64_NW BOM_ROCI BOM_POCI BOM_EYE BOM_POS_METHOD BOM_PRES_METHOD NADI_LAT NADI_LON NADI_CAT NADI_WIND NADI_PRES WELLINGTON_LAT WELLINGTON_LON WELLINGTON_WIND WELLINGTON_PRES DS824_LAT DS824_LON DS824_STAGE DS824_WIND DS824_PRES TD9636_LAT TD9636_LON TD9636_STAGE TD9636_WIND TD9636_PRES TD9635_LAT TD9635_LON TD9635_WIND TD9635_PRES TD9635_ROCI NEUMANN_LAT NEUMANN_LON NEUMANN_CLASS NEUMANN_WIND NEUMANN_PRES MLC_LAT MLC_LON MLC_CLASS MLC_WIND MLC_PRES USA_GUST BOM_GUST BOM_GUST_PER REUNION_GUST REUNION_GUST_PER USA_SEAHGT USA_SEARAD_NE USA_SEARAD_SE USA_SEARAD_SW USA_SEARAD_NW STORM_SPEED STORM_DIR
1961071S14205 1961 29 SP MM NOT_NAMED 1961-03-11 12:00:00 TS -13.7000 -155.100 main 1847 1847 O________OO___ jtwc_sh SH251961 -13.7000 -155.100 -1 -13.7000 204.900 TC -13.7000 -155.100 2 2 86
1961071S14205 1961 29 SP MM NOT_NAMED 1961-03-11 15:00:00 TS -13.6941 -155.021 main 1858 1858 P________PP___ SH251961 -13.6751 -155.015 -1 -13.6751 -155.015 TC -13.7321 -155.034 2 2 98
1961071S14205 1961 29 SP MM NOT_NAMED 1961-03-11 18:00:00 TS -13.7271 -154.908 main 1869 1868 O________OP___ jtwc_sh SH251961 -13.7000 -154.900 -1 -13.7000 205.100 TC -13.7814 -154.924 2 3 115
1961071S14205 1961 29 SP MM NOT_NAMED 1961-03-11 21:00:00 TS -13.8299 -154.721 main 1890 1889 P________PP___ SH251961 -13.8123 -154.717 -1 -13.8123 -154.717 TC -13.8650 -154.728 2 6 119
1961071S14205 1961 29 SP MM NOT_NAMED 1961-03-12 00:00:00 TS -14.0000 -154.400 main 1922 1922 O________OO_O_ jtwc_sh SH251961 -14.0000 -154.400 -1 -14.0000 205.600 TC 35 -14.0000 -154.400 2 -14.0000 -154.400 TC 25 9 115
1961071S14205 1961 29 SP MM NOT_NAMED 1961-03-12 03:00:00 TS -14.2066 -153.881 main 1975 1975 P________PP_P_ SH251961 -14.2202 -153.887 -1 -14.2202 -153.887 TC 35 -14.2000 -153.919 2 -14.1653 -153.780 TC 25 12 114
1961071S14205 1961 29 SP MM NOT_NAMED 1961-03-12 06:00:00 TS -14.4711 -153.294 main 2039 2039 O________OP_O_ jtwc_sh SH251961 -14.5000 -153.300 -1 -14.5000 206.700 TC 35 -14.4668 -153.351 2 -14.4000 -153.200 TC 25 12 118
1961071S14205 1961 29 SP MM NOT_NAMED 1961-03-12 09:00:00 TS -14.7950 -152.747 main 2104 2104 P________PP_P_ SH251961 -14.8125 -152.755 -1 -14.8125 -152.755 TC 35 -14.8000 -152.782 2 -14.7549 -152.698 TC 27 12 127
1961071S14205 1961 29 SP MM NOT_NAMED 1961-03-12 12:00:00 TS -15.2000 -152.300 main 2148 2148 O________OO_O_ jtwc_sh SH251961 -15.2000 -152.300 -1 -15.2000 207.700 TC 35 -15.2000 -152.300 2 -15.2000 -152.300 TC 30 11 140
1961071S14205 1961 29 SP MM NOT_NAMED 1961-03-12 15:00:00 TS -15.6733 -151.993 main 2182 2182 P________PP_P_ SH251961 -15.6699 -151.990 -1 -15.6699 -151.990 TC 35 -15.6759 -151.996 2 -15.6774 -151.997 TC 30 11 154
1961071S14205 1961 29 SP MM NOT_NAMED 1961-03-12 18:00:00 TS -16.2029 -151.798 main 2207 2207 O________OP_O_ jtwc_sh SH251961 -16.2000 -151.800 -1 -16.2000 208.200 TC 35 -16.2117 -151.792 2 -16.2000 -151.800 TC 30 11 164
1961071S14205 1961 29 SP MM NOT_NAMED 1961-03-12 21:00:00 TS -16.7598 -151.669 main 2223 2223 P________PP_P_ SH251961 -16.7575 -151.670 -1 -16.7575 -151.670 TC 35 -16.7668 -151.668 2 -16.7575 -151.670 TC 32 11 170
1961071S14205 1961 29 SP MM NOT_NAMED 1961-03-13 00:00:00 TS -17.3000 -151.600 main 2240 2240 O________OO_O_ jtwc_sh SH251961 -17.3000 -151.600 -1 -17.3000 208.400 TC 35 -17.3000 -151.600 2 -17.3000 -151.600 TC 35 10 172
1961071S14205 1961 29 SP MM NOT_NAMED 1961-03-13 03:00:00 TS -17.7728 -151.524 main 2258 2258 P________PP_P_ SH251961 -17.7725 -151.528 -1 -17.7725 -151.528 TC 35 -17.7738 -151.513 2 -17.7725 -151.528 TC 37 9 174
1961071S14205 1961 29 SP MM NOT_NAMED 1961-03-13 06:00:00 TS -18.2043 -151.495 main 2265 2265 O________OP_O_ jtwc_sh SH251961 -18.2000 -151.500 -1 -18.2000 208.500 TC 35 -18.2171 -151.480 2 -18.2000 -151.500 TC 40 9 0
1961071S14205 1961 29 SP MM NOT_NAMED 1961-03-13 09:00:00 TS -18.6180 -151.517 main 2273 2267 P________PP_P_ SH251961 -18.6150 -151.520 -1 -18.6150 -151.520 TC 35 -18.6269 -151.507 2 -18.6150 -151.520 TC 40 8 187
1961071S14205 1961 29 SP MM NOT_NAMED 1961-03-13 12:00:00 TS -19.0000 -151.600 main 2271 2266 O________OO_O_ jtwc_sh SH251961 -19.0000 -151.600 -1 -19.0000 208.400 TC 35 -19.0000 -151.600 2 -19.0000 -151.600 TC 40 8 193
1961071S14205 1961 29 SP MM NOT_NAMED 1961-03-13 15:00:00 TS -19.3773 -151.708 main 2271 2258 P________PP_P_ SH251961 -19.3724 -151.713 -1 -19.3724 -151.713 TC 35 -19.3920 -151.695 2 -19.3724 -151.713 TC 42 8 201
1961071S14205 1961 29 SP MM NOT_NAMED 1961-03-13 18:00:00 TS -19.7103 -151.890 main 2258 2243 O________OP_O_ jtwc_sh SH251961 -19.7000 -151.900 -1 -19.7000 208.100 TC 35 -19.7412 -151.862 2 -19.7000 -151.900 TC 45 7 212
1961071S14205 1961 29 SP MM NOT_NAMED 1961-03-13 21:00:00 TS -19.9972 -152.124 main 2246 2212 P________PP_P_ SH251961 -19.9947 -152.125 -1 -19.9947 -152.125 TC 35 -20.0198 -152.123 2 -19.9797 -152.125 TC 45 8 229
1961071S14205 1961 29 SP MM NOT_NAMED 1961-03-14 00:00:00 TS -20.2000 -152.500 main 2212 2155 O________OO_O_ jtwc_sh SH251961 -20.2000 -152.500 -1 -20.2000 207.500 TC 35 -20.2000 -152.500 2 -20.2000 -152.500 TC 45 10 250
1961071S14205 1961 29 SP MM NOT_NAMED 1961-03-14 03:00:00 TS -20.3421 -153.108 main 2155 2088 P________PP_P_ SH251961 -20.3103 -153.105 -1 -20.3103 -153.105 TC 35 -20.3223 -153.116 2 -20.4253 -153.104 TC 47 12 263
1961071S14205 1961 29 SP MM NOT_NAMED 1961-03-14 06:00:00 TS -20.3591 -153.807 main 2088 2015 O________OP_O_ jtwc_sh SH251961 -20.3000 -153.800 -1 -20.3000 206.200 TC 35 -20.3363 -153.826 2 -20.5000 -153.800 TC 50 13 274
1961071S14205 1961 29 SP MM NOT_NAMED 1961-03-14 09:00:00 TS -20.2612 -154.489 main 2015 1955 P________PP_P_ SH251961 -20.2328 -154.490 -1 -20.2328 -154.490 TC 35 -20.2315 -154.498 2 -20.3477 -154.476 TC 50 12 288
1961071S14205 1961 29 SP MM NOT_NAMED 1961-03-14 12:00:00 TS -20.0000 -155.000 main 1955 1922 O________OO_O_ jtwc_sh SH251961 -20.0000 -155.000 -1 -20.0000 205.000 TC 35 -20.0000 -155.000 2 -20.0000 -155.000 TC 50 10 317
1961071S14205 1961 29 SP MM NOT_NAMED 1961-03-14 15:00:00 TS -19.5520 -155.193 main 1922 1903 P________PP_P_ SH251961 -19.5446 -155.155 -1 -19.5446 -155.155 TC 35 -19.5889 -155.194 2 -19.5296 -155.270 TC 52 10 350
1961071S14205 1961 29 SP MM NOT_NAMED 1961-03-14 18:00:00 TS -19.0177 -155.176 main 1903 1898 O________OP_O_ jtwc_sh SH251961 -19.0000 -155.100 -1 -19.0000 204.900 TC 35 -19.0710 -155.204 2 -19.0000 -155.300 TC 55 11 6
1961071S14205 1961 29 SP MM NOT_NAMED 1961-03-14 21:00:00 TS -18.5088 -155.078 main 1900 1897 P________PP_P_ SH251961 -18.4975 -155.037 -1 -18.4975 -155.037 TC 35 -18.5426 -155.087 2 -18.4976 -155.152 TC 52 10 16
1961071S14205 1961 29 SP MM NOT_NAMED 1961-03-15 00:00:00 TS -18.1000 -154.900 main 1910 1908 O________OO_O_ jtwc_sh SH251961 -18.1000 -154.900 -1 -18.1000 205.100 TC 35 -18.1000 -154.900 2 -18.1000 -154.900 TC 50 7 28
1961071S14205 1961 29 SP MM NOT_NAMED 1961-03-15 03:00:00 TS -17.8877 -154.724 main 1926 1924 P________PP_P_ SH251961 -17.8975 -154.723 -1 -17.8975 -154.723 TC 35 -17.8582 -154.745 2 -17.8975 -154.708 TC 50 5 49
1961071S14205 1961 29 SP MM NOT_NAMED 1961-03-15 06:00:00 TS -17.7788 -154.508 main 1945 1945 O________OP_O_ jtwc_sh SH251961 -17.8000 -154.500 -1 -17.8000 205.500 TC 35 -17.7150 -154.532 2 -17.8000 -154.500 TC 50 5 64
1961071S14205 1961 29 SP MM NOT_NAMED 1961-03-15 09:00:00 TS -17.6736 -154.269 main 1964 1964 P________PP_P_ SH251961 -17.6850 -154.265 -1 -17.6850 -154.265 TC 35 -17.6394 -154.279 2 -17.6850 -154.265 TC 47 5 70
1961071S14205 1961 29 SP MM NOT_NAMED 1961-03-15 12:00:00 TS -17.6000 -154.000 main 1993 1993 O________OO_O_ jtwc_sh SH251961 -17.6000 -154.000 -1 -17.6000 206.000 TC 35 -17.6000 -154.000 2 -17.6000 -154.000 TC 45 6 74
1961071S14205 1961 29 SP MM NOT_NAMED 1961-03-15 15:00:00 TS -17.5256 -153.712 main 2023 2023 P________PP_P_ SH251961 -17.5350 -153.708 -1 -17.5350 -153.708 TC 35 -17.4975 -153.725 2 -17.5350 -153.708 TC 45 6 78
1961071S14205 1961 29 SP MM NOT_NAMED 1961-03-15 18:00:00 TS -17.4825 -153.407 main 2054 2054 O________OP_O_ jtwc_sh SH251961 -17.5000 -153.400 -1 -17.5000 206.600 TC 35 -17.4299 -153.429 2 -17.5000 -153.400 TC 45 6 83
1961071S14205 1961 29 SP MM NOT_NAMED 1961-03-15 21:00:00 TS -17.4524 -153.106 main 2086 2086 P________PP_P_ SH251961 -17.4625 -153.100 -1 -17.4625 -153.100 TC 35 -17.4224 -153.119 2 -17.4624 -153.107 TC 42 6 92
1961071S14205 1961 29 SP MM NOT_NAMED 1961-03-16 00:00:00 TS -17.5000 -152.800 main 2117 2117 O________OO_O_ jtwc_sh SH251961 -17.5000 -152.800 -1 -17.5000 207.200 TC 35 -17.5000 -152.800 2 -17.5000 -152.800 TC 40 6 108
1961071S14205 1961 29 SP MM NOT_NAMED 1961-03-16 03:00:00 TS -17.6528 -152.476 main 2152 2152 P________PP_P_ SH251961 -17.6474 -152.507 -1 -17.6474 -152.507 TC 35 -17.6687 -152.438 2 -17.6475 -152.450 TC 40 7 123
1961071S14205 1961 29 SP MM NOT_NAMED 1961-03-16 06:00:00 TS -17.9057 -152.144 main 2197 2197 O________OP_O_ jtwc_sh SH251961 -17.9000 -152.200 -1 -17.9000 207.800 TC 35 -17.9230 -152.076 2 -17.9000 -152.100 TC 40 9 132
1961071S14205 1961 29 SP MM NOT_NAMED 1961-03-16 09:00:00 TS -18.2252 -151.798 main 2234 2234 P________PP_P_ SH251961 -18.2201 -151.835 -1 -18.2201 -151.835 TC 35 -18.2407 -151.751 2 -18.2200 -151.770 TC 37 9 139
1961071S14205 1961 29 SP MM NOT_NAMED 1961-03-16 12:00:00 TS -18.6000 -151.500 main 2273 2273 O________OO_O_ jtwc_sh SH251961 -18.6000 -151.500 -1 -18.6000 208.500 TC 35 -18.6000 -151.500 2 -18.6000 -151.500 TC 35 9 146
1961071S14205 1961 29 SP MM NOT_NAMED 1961-03-16 15:00:00 TS -18.9862 -151.265 main 2302 2302 P________PP_P_ SH251961 -18.9924 -151.233 -1 -18.9924 -151.233 TC 35 -18.9675 -151.298 2 -18.9924 -151.298 TC 35 9 157
1961071S14205 1961 29 SP MM NOT_NAMED 1961-03-16 18:00:00 TS -19.3923 -151.146 main 2332 2332 O________OP_O_ jtwc_sh SH251961 -19.4000 -151.100 -1 -19.4000 208.900 TC 35 -19.3691 -151.184 2 -19.4000 -151.200 TC 35 8 172
1961071S14205 1961 29 SP MM NOT_NAMED 1961-03-16 21:00:00 TS -19.7964 -151.141 main 2342 2330 P________PP_P_ SH251961 -19.7998 -151.110 -1 -19.7998 -151.110 TC 35 -19.7861 -151.177 2 -19.7998 -151.168 TC 32 8 190
1961071S14205 1961 29 SP MM NOT_NAMED 1961-03-17 00:00:00 TS -20.2000 -151.300 main 2333 2311 O________OO_O_ jtwc_sh SH251961 -20.2000 -151.300 -1 -20.2000 208.700 TC 35 -20.2000 -151.300 2 -20.2000 -151.300 TC 30 9 210
1961071S14205 1961 29 SP MM NOT_NAMED 1961-03-17 03:00:00 TS -20.6034 -151.631 main 2314 2284 P________PP_P_ SH251961 -20.6076 -151.655 -1 -20.6076 -151.655 TC 35 -20.5907 -151.566 2 -20.6077 -151.647 TC 30 11 222
1961071S14205 1961 29 SP MM NOT_NAMED 1961-03-17 06:00:00 TS -20.9933 -152.064 main 2277 2248 O________OP_O_ jtwc_sh SH251961 -21.0000 -152.100 -1 -21.0000 207.900 TC 35 -20.9731 -151.956 2 -21.0000 -152.100 TC 30 11 226
1961071S14205 1961 29 SP MM NOT_NAMED 1961-03-17 09:00:00 TS -21.3559 -152.474 main 2252 2224 P________PP_P_ SH251961 -21.3573 -152.493 -1 -21.3573 -152.493 TC 35 -21.3439 -152.419 2 -21.3648 -152.493 TC 27 11 228
1961071S14205 1961 29 SP MM NOT_NAMED 1961-03-17 12:00:00 TS -21.7000 -152.900 main 2224 2197 O________OO_O_ jtwc_sh SH251961 -21.7000 -152.900 -1 -21.7000 207.100 TC 35 -21.7000 -152.900 2 -21.7000 -152.900 TC 25 11 230
1961071S14205 1961 29 SP MM NOT_NAMED 1961-03-17 15:00:00 TS -22.0417 -153.347 main 2197 2167 P________PP_P_ SH251961 -22.0575 -153.350 -1 -22.0575 -153.350 TC 35 -22.0516 -153.338 2 -22.0000 -153.350 TC 25 11 231
1961071S14205 1961 29 SP MM NOT_NAMED 1961-03-17 18:00:00 TS -22.3719 -153.795 main 2167 2143 O________OP_O_ jtwc_sh SH251961 -22.4000 -153.800 -1 -22.4000 206.200 TC 35 -22.3877 -153.780 2 -22.3000 -153.800 TC 25 10 231
1961071S14205 1961 29 SP MM NOT_NAMED 1961-03-17 21:00:00 TS -22.6980 -154.215 main 2143 2120 P________PP_P_ SH251961 -22.7149 -154.215 -1 -22.7149 -154.215 TC 35 -22.7048 -154.207 2 -22.6574 -154.222 TC 25 10 230
1961071S14205 1961 29 SP MM NOT_NAMED 1961-03-18 00:00:00 TS -23.0000 -154.600 main 2120 2102 O________OO_O_ jtwc_sh SH251961 -23.0000 -154.600 -1 -23.0000 205.400 TC 35 -23.0000 -154.600 2 -23.0000 -154.600 TC 25 9 231
1961071S14205 1961 29 SP MM NOT_NAMED 1961-03-18 03:00:00 TS -23.2597 -154.956 main 2098 2082 P________PP_P_ SH251961 -23.2575 -154.973 -1 -23.2575 -154.973 TC 35 -23.2591 -154.965 2 -23.2648 -154.915 TC 25 8 231
1961071S14205 1961 29 SP MM NOT_NAMED 1961-03-18 06:00:00 TS -23.4999 -155.273 main 2082 2069 O________OP_O_ jtwc_sh SH251961 -23.5000 -155.300 -1 -23.5000 204.700 TC 35 -23.4997 -155.291 2 -23.5000 -155.200 TC 25 7 229
1961071S14205 1961 29 SP MM NOT_NAMED 1961-03-18 09:00:00 TS -23.7420 -155.562 main 2066 2059 P________PP_P_ SH251961 -23.7424 -155.580 -1 -23.7424 -155.580 TC 35 -23.7405 -155.571 2 -23.7425 -155.515 TC 22 7 224
1961071S14205 1961 29 SP MM NOT_NAMED 1961-03-18 12:00:00 TS -24.0000 -155.800 main 2065 2059 O________OO_O_ jtwc_sh SH251961 -24.0000 -155.800 -1 -24.0000 204.200 TC 35 -24.0000 -155.800 2 -24.0000 -155.800 TC 20 7 216
1961071S14205 1961 29 SP MM NOT_NAMED 1961-03-18 15:00:00 TS -24.2868 -155.989 main 2065 2062 P________PP_P_ SH251961 -24.2850 -155.973 -1 -24.2850 -155.973 TC 35 -24.2922 -155.975 2 -24.2850 -156.038 TC 25 7 206
1961071S14205 1961 29 SP MM NOT_NAMED 1961-03-18 18:00:00 TS -24.6031 -156.127 main 2074 2072 O________OP_O_ jtwc_sh SH251961 -24.6000 -156.100 -1 -24.6000 203.900 TC 35 -24.6125 -156.107 2 -24.6000 -156.200 TC 30 7 198
1961071S14205 1961 29 SP MM NOT_NAMED 1961-03-18 21:00:00 TS -24.9448 -156.224 main 2084 2084 P________PP_P_ SH251961 -24.9425 -156.205 -1 -24.9425 -156.205 TC 35 -24.9516 -156.211 2 -24.9425 -156.275 TC 25 7 193
1961071S14205 1961 29 SP MM NOT_NAMED 1961-03-19 00:00:00 TS -25.3000 -156.300 main 2101 O________OO_O_ jtwc_sh SH251961 -25.3000 -156.300 -1 -25.3000 203.700 TC 35 -25.3000 -156.300 2 -25.3000 -156.300 TC 20 7 192

デジタル台風データ・検索

IBTrACS Databaseについて

本データベースは、米国NOAAが公開する1842年以降の世界の熱帯低気圧のベストトラックデータアーカイブInternational Best Track Archive for Climate Stewardship (IBTrACS)を、ウェブで閲覧しやすい形式に変換したものです。

最終更新日:2021-10-19